sensor_id;sensor_type;location;lat;lon;timestamp;pressure;altitude;pressure_sealevel;temperature;humidity
56558;BME280;43358;50.356;12.456;2023-01-28T00:00:47;96067;;;-0.9;95.9
56558;BME280;43358;50.356;12.456;2023-01-28T00:01:49;96068;;;-0.9;96.1
56558;BME280;43358;50.356;12.456;2023-01-28T00:02:51;96071;;;-0.9;96.1
56558;BME280;43358;50.356;12.456;2023-01-28T00:03:53;96069;;;-0.9;95.9
56558;BME280;43358;50.356;12.456;2023-01-28T00:04:55;96068;;;-0.9;95.9
56558;BME280;43358;50.356;12.456;2023-01-28T00:06:27;96071;;;-0.9;95.9
56558;BME280;43358;50.356;12.456;2023-01-28T00:07:27;96068;;;-0.9;95.7
56558;BME280;43358;50.356;12.456;2023-01-28T00:08:27;96064;;;-0.9;96
56558;BME280;43358;50.356;12.456;2023-01-28T00:10:09;96063;;;-1;96
56558;BME280;43358;50.356;12.456;2023-01-28T00:10:27;96066;;;-1;96.3
56558;BME280;43358;50.356;12.456;2023-01-28T00:11:27;96063;;;-1;96.2
56558;BME280;43358;50.356;12.456;2023-01-28T00:12:27;96063;;;-1;96.3
56558;BME280;43358;50.356;12.456;2023-01-28T00:13:28;96057;;;-1;96.2
56558;BME280;43358;50.356;12.456;2023-01-28T00:14:27;96066;;;-1;96
56558;BME280;43358;50.356;12.456;2023-01-28T00:15:27;96059;;;-1;96
56558;BME280;43358;50.356;12.456;2023-01-28T00:17:27;96062;;;-1;96.3
56558;BME280;43358;50.356;12.456;2023-01-28T00:18:28;96060;;;-1;96.3
56558;BME280;43358;50.356;12.456;2023-01-28T00:19:29;96060;;;-1;96.2
56558;BME280;43358;50.356;12.456;2023-01-28T00:20:31;96061;;;-1;96
56558;BME280;43358;50.356;12.456;2023-01-28T00:21:33;96061;;;-1;96.6
56558;BME280;43358;50.356;12.456;2023-01-28T00:22:35;96060;;;-1;96.3
56558;BME280;43358;50.356;12.456;2023-01-28T00:23:37;96061;;;-1;96.4
56558;BME280;43358;50.356;12.456;2023-01-28T00:24:39;96061;;;-0.9;96.4
56558;BME280;43358;50.356;12.456;2023-01-28T00:25:41;96057;;;-0.9;96.1
56558;BME280;43358;50.356;12.456;2023-01-28T00:26:43;96057;;;-0.9;96
56558;BME280;43358;50.356;12.456;2023-01-28T00:27:45;96055;;;-0.9;95.4
56558;BME280;43358;50.356;12.456;2023-01-28T00:28:47;96057;;;-0.9;95.5
56558;BME280;43358;50.356;12.456;2023-01-28T00:29:50;96060;;;-0.9;96.1
56558;BME280;43358;50.356;12.456;2023-01-28T00:30:52;96060;;;-0.9;96
56558;BME280;43358;50.356;12.456;2023-01-28T00:31:54;96063;;;-0.9;96
56558;BME280;43358;50.356;12.456;2023-01-28T00:32:56;96060;;;-0.9;95.7
56558;BME280;43358;50.356;12.456;2023-01-28T00:33:59;96055;;;-0.9;95.7
56558;BME280;43358;50.356;12.456;2023-01-28T00:35:00;96059;;;-0.9;96
56558;BME280;43358;50.356;12.456;2023-01-28T00:36:03;96060;;;-1;95.9
56558;BME280;43358;50.356;12.456;2023-01-28T00:37:05;96063;;;-1.1;96.1
56558;BME280;43358;50.356;12.456;2023-01-28T00:38:07;96057;;;-1.1;96.2
56558;BME280;43358;50.356;12.456;2023-01-28T00:39:50;96053;;;-1.1;96.5
56558;BME280;43358;50.356;12.456;2023-01-28T00:40:21;96055;;;-1.1;96.7
56558;BME280;43358;50.356;12.456;2023-01-28T00:41:25;96051;;;-1.1;96.4
56558;BME280;43358;50.356;12.456;2023-01-28T00:42:26;96051;;;-1.1;96.5
56558;BME280;43358;50.356;12.456;2023-01-28T00:43:28;96051;;;-1.2;96.7
56558;BME280;43358;50.356;12.456;2023-01-28T00:44:30;96053;;;-1.2;96.8
56558;BME280;43358;50.356;12.456;2023-01-28T00:45:32;96053;;;-1.2;96.8
56558;BME280;43358;50.356;12.456;2023-01-28T00:46:34;96050;;;-1.3;96.9
56558;BME280;43358;50.356;12.456;2023-01-28T00:47:36;96053;;;-1.2;97.3
56558;BME280;43358;50.356;12.456;2023-01-28T00:49:40;96048;;;-1;96
56558;BME280;43358;50.356;12.456;2023-01-28T00:50:54;96053;;;-1;95.7
56558;BME280;43358;50.356;12.456;2023-01-28T00:51:44;96054;;;-1.1;95.8
56558;BME280;43358;50.356;12.456;2023-01-28T00:52:46;96053;;;-1.1;95.9
56558;BME280;43358;50.356;12.456;2023-01-28T00:53:48;96051;;;-1.2;96.2
56558;BME280;43358;50.356;12.456;2023-01-28T00:54:50;96051;;;-1.1;96.8
56558;BME280;43358;50.356;12.456;2023-01-28T00:55:52;96053;;;-1.1;96.8
56558;BME280;43358;50.356;12.456;2023-01-28T00:56:54;96050;;;-1;96.3
56558;BME280;43358;50.356;12.456;2023-01-28T00:57:56;96056;;;-1;96.3
56558;BME280;43358;50.356;12.456;2023-01-28T00:58:58;96055;;;-0.9;96.1
56558;BME280;43358;50.356;12.456;2023-01-28T01:00:00;96057;;;-0.9;96.2
56558;BME280;43358;50.356;12.456;2023-01-28T01:01:06;96057;;;-0.9;96.2
56558;BME280;43358;50.356;12.456;2023-01-28T01:02:04;96058;;;-0.8;96.2
56558;BME280;43358;50.356;12.456;2023-01-28T01:03:06;96054;;;-0.8;95.9
56558;BME280;43358;50.356;12.456;2023-01-28T01:04:08;96054;;;-0.8;95.5
56558;BME280;43358;50.356;12.456;2023-01-28T01:05:10;96053;;;-0.8;95.3
56558;BME280;43358;50.356;12.456;2023-01-28T01:06:13;96052;;;-0.9;95.4
56558;BME280;43358;50.356;12.456;2023-01-28T01:07:14;96052;;;-1;95.5
56558;BME280;43358;50.356;12.456;2023-01-28T01:08:30;96052;;;-1;95.7
56558;BME280;43358;50.356;12.456;2023-01-28T01:09:21;96050;;;-1;95.9
56558;BME280;43358;50.356;12.456;2023-01-28T01:10:23;96050;;;-1.1;96.1
56558;BME280;43358;50.356;12.456;2023-01-28T01:11:25;96050;;;-1;96.1
56558;BME280;43358;50.356;12.456;2023-01-28T01:13:29;96052;;;-1;96.3
56558;BME280;43358;50.356;12.456;2023-01-28T01:14:31;96052;;;-1;96.2
56558;BME280;43358;50.356;12.456;2023-01-28T01:15:33;96056;;;-1.1;96.3
56558;BME280;43358;50.356;12.456;2023-01-28T01:17:37;96051;;;-1.2;96.5
56558;BME280;43358;50.356;12.456;2023-01-28T01:18:55;96053;;;-1.2;96.8
56558;BME280;43358;50.356;12.456;2023-01-28T01:19:41;96051;;;-1.1;97.2
56558;BME280;43358;50.356;12.456;2023-01-28T01:20:44;96055;;;-1.1;96.9
56558;BME280;43358;50.356;12.456;2023-01-28T01:21:46;96056;;;-1.1;97
56558;BME280;43358;50.356;12.456;2023-01-28T01:22:48;96058;;;-1.1;97
56558;BME280;43358;50.356;12.456;2023-01-28T01:23:50;96053;;;-1.1;96.9
56558;BME280;43358;50.356;12.456;2023-01-28T01:24:52;96057;;;-1;96.9
56558;BME280;43358;50.356;12.456;2023-01-28T01:25:54;96055;;;-0.9;96.3
56558;BME280;43358;50.356;12.456;2023-01-28T01:26:56;96054;;;-0.9;96.2
56558;BME280;43358;50.356;12.456;2023-01-28T01:27:58;96055;;;-0.9;96.1
56558;BME280;43358;50.356;12.456;2023-01-28T01:29:00;96055;;;-0.9;95.7
56558;BME280;43358;50.356;12.456;2023-01-28T01:30:04;96056;;;-0.9;95.7
56558;BME280;43358;50.356;12.456;2023-01-28T01:31:06;96052;;;-0.8;95.6
56558;BME280;43358;50.356;12.456;2023-01-28T01:32:07;96056;;;-0.8;95.1
56558;BME280;43358;50.356;12.456;2023-01-28T01:33:09;96055;;;-0.8;95.2
56558;BME280;43358;50.356;12.456;2023-01-28T01:34:11;96059;;;-0.9;95.4
56558;BME280;43358;50.356;12.456;2023-01-28T01:35:13;96061;;;-0.9;95.7
56558;BME280;43358;50.356;12.456;2023-01-28T01:36:16;96059;;;-0.9;95.8
56558;BME280;43358;50.356;12.456;2023-01-28T01:37:17;96060;;;-1;96.1
56558;BME280;43358;50.356;12.456;2023-01-28T01:38:21;96064;;;-1;96.1
56558;BME280;43358;50.356;12.456;2023-01-28T01:39:23;96064;;;-1;96.4
56558;BME280;43358;50.356;12.456;2023-01-28T01:40:27;96066;;;-1;96.6
56558;BME280;43358;50.356;12.456;2023-01-28T01:41:28;96063;;;-1;96.4
56558;BME280;43358;50.356;12.456;2023-01-28T01:42:31;96068;;;-0.9;96.3
56558;BME280;43358;50.356;12.456;2023-01-28T01:43:48;96064;;;-0.9;96.1
56558;BME280;43358;50.356;12.456;2023-01-28T01:45:06;96067;;;-0.8;96
56558;BME280;43358;50.356;12.456;2023-01-28T01:45:36;96067;;;-0.8;95.7
56558;BME280;43358;50.356;12.456;2023-01-28T01:46:39;96070;;;-0.8;96.2
56558;BME280;43358;50.356;12.456;2023-01-28T01:47:41;96070;;;-0.7;95.7
56558;BME280;43358;50.356;12.456;2023-01-28T01:48:42;96074;;;-0.7;95.4
56558;BME280;43358;50.356;12.456;2023-01-28T01:49:44;96069;;;-0.7;95.2
56558;BME280;43358;50.356;12.456;2023-01-28T01:50:48;96072;;;-0.8;95.2
56558;BME280;43358;50.356;12.456;2023-01-28T01:51:49;96068;;;-0.9;95.4
56558;BME280;43358;50.356;12.456;2023-01-28T01:52:51;96070;;;-0.9;95.6
56558;BME280;43358;50.356;12.456;2023-01-28T01:53:52;96066;;;-0.9;95.9
56558;BME280;43358;50.356;12.456;2023-01-28T01:54:55;96069;;;-0.9;96.4
56558;BME280;43358;50.356;12.456;2023-01-28T01:55:57;96061;;;-0.8;96.1
56558;BME280;43358;50.356;12.456;2023-01-28T01:56:58;96064;;;-0.8;96.1
56558;BME280;43358;50.356;12.456;2023-01-28T01:58:01;96062;;;-0.7;96
56558;BME280;43358;50.356;12.456;2023-01-28T01:59:02;96062;;;-0.6;95.6
56558;BME280;43358;50.356;12.456;2023-01-28T02:00:05;96059;;;-0.6;95.1
56558;BME280;43358;50.356;12.456;2023-01-28T02:01:06;96059;;;-0.6;94.9
56558;BME280;43358;50.356;12.456;2023-01-28T02:02:09;96060;;;-0.6;94.7
56558;BME280;43358;50.356;12.456;2023-01-28T02:03:11;96060;;;-0.6;94.9
56558;BME280;43358;50.356;12.456;2023-01-28T02:04:25;96059;;;-0.6;95
56558;BME280;43358;50.356;12.456;2023-01-28T02:05:16;96054;;;-0.6;94.9
56558;BME280;43358;50.356;12.456;2023-01-28T02:06:17;96057;;;-0.7;94.9
56558;BME280;43358;50.356;12.456;2023-01-28T02:07:20;96056;;;-0.7;95.1
56558;BME280;43358;50.356;12.456;2023-01-28T02:08:22;96054;;;-0.7;95.2
56558;BME280;43358;50.356;12.456;2023-01-28T02:09:25;96056;;;-0.7;95.4
56558;BME280;43358;50.356;12.456;2023-01-28T02:10:26;96053;;;-0.7;95.4
56558;BME280;43358;50.356;12.456;2023-01-28T02:11:29;96055;;;-0.7;95.6
56558;BME280;43358;50.356;12.456;2023-01-28T02:12:32;96058;;;-0.7;95.7
56558;BME280;43358;50.356;12.456;2023-01-28T02:13:35;96060;;;-0.7;95.7
56558;BME280;43358;50.356;12.456;2023-01-28T02:14:36;96062;;;-0.7;95.9
56558;BME280;43358;50.356;12.456;2023-01-28T02:15:37;96059;;;-0.7;96
56558;BME280;43358;50.356;12.456;2023-01-28T02:16:39;96060;;;-0.7;96
56558;BME280;43358;50.356;12.456;2023-01-28T02:17:42;96058;;;-0.8;95.7
56558;BME280;43358;50.356;12.456;2023-01-28T02:19:49;96063;;;-0.8;96.4
56558;BME280;43358;50.356;12.456;2023-01-28T02:20:54;96067;;;-0.8;96.2
56558;BME280;43358;50.356;12.456;2023-01-28T02:22:28;96068;;;-0.7;96.1
56558;BME280;43358;50.356;12.456;2023-01-28T02:24:00;96062;;;-0.7;96.1
56558;BME280;43358;50.356;12.456;2023-01-28T02:25:03;96062;;;-0.7;96.4
56558;BME280;43358;50.356;12.456;2023-01-28T02:26:09;96061;;;-0.7;96.3
56558;BME280;43358;50.356;12.456;2023-01-28T02:27:06;96063;;;-0.7;96.1
56558;BME280;43358;50.356;12.456;2023-01-28T02:33:40;96062;;;-0.7;95.7
56558;BME280;43358;50.356;12.456;2023-01-28T02:34:41;96068;;;-0.8;95.9
56558;BME280;43358;50.356;12.456;2023-01-28T02:35:54;96068;;;-0.8;95.7
56558;BME280;43358;50.356;12.456;2023-01-28T02:36:45;96069;;;-0.8;96
56558;BME280;43358;50.356;12.456;2023-01-28T02:37:47;96069;;;-0.8;96
56558;BME280;43358;50.356;12.456;2023-01-28T02:38:48;96071;;;-0.9;96.1
56558;BME280;43358;50.356;12.456;2023-01-28T02:39:51;96069;;;-0.9;96.3
56558;BME280;43358;50.356;12.456;2023-01-28T02:40:53;96073;;;-0.9;96.4
56558;BME280;43358;50.356;12.456;2023-01-28T02:41:55;96068;;;-0.8;96.5
56558;BME280;43358;50.356;12.456;2023-01-28T02:42:56;96073;;;-0.8;96.7
56558;BME280;43358;50.356;12.456;2023-01-28T02:44:00;96071;;;-0.8;96.8
56558;BME280;43358;50.356;12.456;2023-01-28T02:45:00;96071;;;-0.8;96.7
56558;BME280;43358;50.356;12.456;2023-01-28T02:46:04;96072;;;-0.8;96.4
56558;BME280;43358;50.356;12.456;2023-01-28T02:47:07;96072;;;-0.7;96.5
56558;BME280;43358;50.356;12.456;2023-01-28T02:48:19;96076;;;-0.7;96.3
56558;BME280;43358;50.356;12.456;2023-01-28T02:49:09;96078;;;-0.7;96.1
56558;BME280;43358;50.356;12.456;2023-01-28T03:27:16;96086;;;-0.9;98.1
56558;BME280;43358;50.356;12.456;2023-01-28T03:27:17;96086;;;-0.9;98.3
56558;BME280;43358;50.356;12.456;2023-01-28T03:28:07;96088;;;-0.8;96.2
56558;BME280;43358;50.356;12.456;2023-01-28T03:29:07;96087;;;-0.8;96.2
56558;BME280;43358;50.356;12.456;2023-01-28T03:30:06;96086;;;-0.8;96.5
56558;BME280;43358;50.356;12.456;2023-01-28T03:31:06;96092;;;-0.8;96.9
56558;BME280;43358;50.356;12.456;2023-01-28T03:32:05;96091;;;-0.8;96.7
56558;BME280;43358;50.356;12.456;2023-01-28T03:33:05;96090;;;-0.8;96.7
56558;BME280;43358;50.356;12.456;2023-01-28T03:34:05;96094;;;-0.8;96.8
56558;BME280;43358;50.356;12.456;2023-01-28T03:35:05;96092;;;-0.8;96.7
56558;BME280;43358;50.356;12.456;2023-01-28T03:36:05;96093;;;-0.8;96.7
56558;BME280;43358;50.356;12.456;2023-01-28T03:37:05;96095;;;-0.8;96.5
56558;BME280;43358;50.356;12.456;2023-01-28T03:38:05;96094;;;-0.8;96.4
56558;BME280;43358;50.356;12.456;2023-01-28T04:02:37;96074;;;-0.6;95.7
56558;BME280;43358;50.356;12.456;2023-01-28T04:02:37;96086;;;-0.6;95.7
56558;BME280;43358;50.356;12.456;2023-01-28T04:03:30;96092;;;-0.8;97.1
56558;BME280;43358;50.356;12.456;2023-01-28T04:04:33;96101;;;-0.8;97.2
56558;BME280;43358;50.356;12.456;2023-01-28T04:05:35;96096;;;-0.7;96.8
56558;BME280;43358;50.356;12.456;2023-01-28T04:07:25;96096;;;-0.6;96.2
56558;BME280;43358;50.356;12.456;2023-01-28T04:08:25;96101;;;-0.6;96.1
56558;BME280;43358;50.356;12.456;2023-01-28T04:09:25;96101;;;-0.6;95.9
56558;BME280;43358;50.356;12.456;2023-01-28T04:10:25;96099;;;-0.6;95.9
56558;BME280;43358;50.356;12.456;2023-01-28T04:11:25;96095;;;-0.6;96.1
56558;BME280;43358;50.356;12.456;2023-01-28T04:12:25;96100;;;-0.6;95.9
56558;BME280;43358;50.356;12.456;2023-01-28T04:13:25;96101;;;-0.6;96.1
56558;BME280;43358;50.356;12.456;2023-01-28T04:14:25;96104;;;-0.7;96.1
56558;BME280;43358;50.356;12.456;2023-01-28T04:15:25;96100;;;-0.7;96.1
56558;BME280;43358;50.356;12.456;2023-01-28T04:16:25;96100;;;-0.8;96
56558;BME280;43358;50.356;12.456;2023-01-28T04:17:25;96103;;;-0.8;96.2
56558;BME280;43358;50.356;12.456;2023-01-28T04:18:25;96103;;;-0.9;96.7
56558;BME280;43358;50.356;12.456;2023-01-28T04:19:25;96103;;;-0.8;96.9
56558;BME280;43358;50.356;12.456;2023-01-28T04:20:25;96098;;;-0.8;96.7
56558;BME280;43358;50.356;12.456;2023-01-28T04:21:25;96104;;;-0.8;96.6
56558;BME280;43358;50.356;12.456;2023-01-28T04:24:51;96102;;;-0.8;96.9
56558;BME280;43358;50.356;12.456;2023-01-28T04:24:52;96106;;;-0.8;96.8
56558;BME280;43358;50.356;12.456;2023-01-28T04:25:44;96109;;;-0.7;96.6
56558;BME280;43358;50.356;12.456;2023-01-28T04:26:46;96110;;;-0.7;96.1
56558;BME280;43358;50.356;12.456;2023-01-28T04:29:08;96112;;;-0.7;95.4
56558;BME280;43358;50.356;12.456;2023-01-28T04:31:00;96116;;;-0.8;95.5
56558;BME280;43358;50.356;12.456;2023-01-28T04:32:14;96117;;;-0.8;96
56558;BME280;43358;50.356;12.456;2023-01-28T04:33:04;96119;;;-0.9;96
56558;BME280;43358;50.356;12.456;2023-01-28T04:34:06;96121;;;-0.9;96
56558;BME280;43358;50.356;12.456;2023-01-28T04:35:08;96119;;;-1;96.1
56558;BME280;43358;50.356;12.456;2023-01-28T04:36:10;96124;;;-1;96.5
56558;BME280;43358;50.356;12.456;2023-01-28T04:37:12;96123;;;-1.1;96.7
56558;BME280;43358;50.356;12.456;2023-01-28T04:38:14;96125;;;-1.1;97
56558;BME280;43358;50.356;12.456;2023-01-28T04:39:16;96120;;;-1;96.7
56558;BME280;43358;50.356;12.456;2023-01-28T04:40:18;96121;;;-0.9;96.7
56558;BME280;43358;50.356;12.456;2023-01-28T04:41:20;96124;;;-0.9;96.4
56558;BME280;43358;50.356;12.456;2023-01-28T04:42:22;96121;;;-0.9;96.2
56558;BME280;43358;50.356;12.456;2023-01-28T04:43:24;96118;;;-0.9;96.4
56558;BME280;43358;50.356;12.456;2023-01-28T04:44:26;96114;;;-0.8;94.9
56558;BME280;43358;50.356;12.456;2023-01-28T04:45:28;96116;;;-0.8;94.5
56558;BME280;43358;50.356;12.456;2023-01-28T04:46:30;96114;;;-0.9;94.7
56558;BME280;43358;50.356;12.456;2023-01-28T04:47:32;96114;;;-1;95.1
56558;BME280;43358;50.356;12.456;2023-01-28T04:48:34;96113;;;-1;95.4
56558;BME280;43358;50.356;12.456;2023-01-28T04:49:36;96111;;;-1.1;95.6
56558;BME280;43358;50.356;12.456;2023-01-28T04:50:38;96111;;;-1.2;95.9
56558;BME280;43358;50.356;12.456;2023-01-28T04:51:41;96115;;;-1.2;96.3
56558;BME280;43358;50.356;12.456;2023-01-28T04:52:43;96118;;;-1.2;96.5
56558;BME280;43358;50.356;12.456;2023-01-28T04:53:45;96118;;;-1.2;96.7
56558;BME280;43358;50.356;12.456;2023-01-28T04:54:47;96120;;;-1.2;96.9
56558;BME280;43358;50.356;12.456;2023-01-28T04:55:49;96121;;;-1.2;96.4
56558;BME280;43358;50.356;12.456;2023-01-28T04:56:52;96122;;;-1.2;96.5
56558;BME280;43358;50.356;12.456;2023-01-28T04:57:55;96124;;;-1.1;95.9
56558;BME280;43358;50.356;12.456;2023-01-28T04:58:57;96122;;;-0.9;95.8
56558;BME280;43358;50.356;12.456;2023-01-28T05:01:01;96126;;;-1;95.7
56558;BME280;43358;50.356;12.456;2023-01-28T05:02:03;96125;;;-1;95.8
56558;BME280;43358;50.356;12.456;2023-01-28T05:03:05;96124;;;-1;96.3
56558;BME280;43358;50.356;12.456;2023-01-28T05:04:07;96124;;;-1;96.3
56558;BME280;43358;50.356;12.456;2023-01-28T05:05:09;96127;;;-1;95.9
56558;BME280;43358;50.356;12.456;2023-01-28T05:06:11;96127;;;-1;95.7
56558;BME280;43358;50.356;12.456;2023-01-28T05:07:13;96127;;;-0.9;95.8
56558;BME280;43358;50.356;12.456;2023-01-28T05:08:15;96126;;;-0.9;95.5
56558;BME280;43358;50.356;12.456;2023-01-28T05:09:17;96128;;;-0.9;95.4
56558;BME280;43358;50.356;12.456;2023-01-28T05:10:19;96130;;;-0.9;95.2
56558;BME280;43358;50.356;12.456;2023-01-28T05:11:21;96132;;;-0.9;95.1
56558;BME280;43358;50.356;12.456;2023-01-28T05:12:23;96129;;;-0.9;95.6
56558;BME280;43358;50.356;12.456;2023-01-28T05:13:25;96126;;;-0.9;95.5
56558;BME280;43358;50.356;12.456;2023-01-28T05:14:27;96129;;;-1;95.7
56558;BME280;43358;50.356;12.456;2023-01-28T05:15:29;96130;;;-0.9;95.6
56558;BME280;43358;50.356;12.456;2023-01-28T05:16:31;96128;;;-0.9;95.4
56558;BME280;43358;50.356;12.456;2023-01-28T05:17:33;96128;;;-0.9;95.3
56558;BME280;43358;50.356;12.456;2023-01-28T05:18:35;96128;;;-0.9;95.5
56558;BME280;43358;50.356;12.456;2023-01-28T05:19:37;96135;;;-0.9;95.6
56558;BME280;43358;50.356;12.456;2023-01-28T05:20:39;96133;;;-0.9;95.5
56558;BME280;43358;50.356;12.456;2023-01-28T05:21:41;96133;;;-0.8;95.6
56558;BME280;43358;50.356;12.456;2023-01-28T05:22:43;96134;;;-0.8;95.3
56558;BME280;43358;50.356;12.456;2023-01-28T05:23:45;96135;;;-0.8;95.2
56558;BME280;43358;50.356;12.456;2023-01-28T05:24:47;96133;;;-0.8;95.3
56558;BME280;43358;50.356;12.456;2023-01-28T05:25:49;96139;;;-0.8;95.2
56558;BME280;43358;50.356;12.456;2023-01-28T05:26:52;96136;;;-0.8;95.5
56558;BME280;43358;50.356;12.456;2023-01-28T05:27:56;96136;;;-0.8;95.2
56558;BME280;43358;50.356;12.456;2023-01-28T05:41:47;96131;;;-1.3;97.1
56558;BME280;43358;50.356;12.456;2023-01-28T05:41:47;96131;;;-1.3;97.1
56558;BME280;43358;50.356;12.456;2023-01-28T05:42:32;96135;;;-1.3;98.2
56558;BME280;43358;50.356;12.456;2023-01-28T05:43:32;96134;;;-1.3;98.2
56558;BME280;43358;50.356;12.456;2023-01-28T05:44:32;96135;;;-1.3;98.3
56558;BME280;43358;50.356;12.456;2023-01-28T05:45:33;96130;;;-1.3;98.1
56558;BME280;43358;50.356;12.456;2023-01-28T05:46:33;96132;;;-1.2;97.9
56558;BME280;43358;50.356;12.456;2023-01-28T05:47:32;96132;;;-1.2;97.7
56558;BME280;43358;50.356;12.456;2023-01-28T05:48:32;96139;;;-1.2;97.7
56558;BME280;43358;50.356;12.456;2023-01-28T05:49:32;96138;;;-1.2;97.8
56558;BME280;43358;50.356;12.456;2023-01-28T05:50:32;96143;;;-1.1;96.9
56558;BME280;43358;50.356;12.456;2023-01-28T05:51:32;96138;;;-1;96.3
56558;BME280;43358;50.356;12.456;2023-01-28T05:52:32;96135;;;-1;96
56558;BME280;43358;50.356;12.456;2023-01-28T05:59:49;96138;;;-1;96.4
56558;BME280;43358;50.356;12.456;2023-01-28T05:59:50;96141;;;-1;96.4
56558;BME280;43358;50.356;12.456;2023-01-28T06:00:32;96142;;;-0.9;94.7
56558;BME280;43358;50.356;12.456;2023-01-28T06:01:32;96144;;;-0.9;94.7
56558;BME280;43358;50.356;12.456;2023-01-28T06:02:32;96150;;;-0.9;94.5
56558;BME280;43358;50.356;12.456;2023-01-28T06:03:49;96149;;;-0.8;94.3
56558;BME280;43358;50.356;12.456;2023-01-28T06:17:13;96159;;;-0.7;94.2
56558;BME280;43358;50.356;12.456;2023-01-28T06:17:13;96157;;;-0.8;93.8
56558;BME280;43358;50.356;12.456;2023-01-28T06:17:35;96165;;;-0.9;93.3
56558;BME280;43358;50.356;12.456;2023-01-28T06:18:37;96172;;;-0.9;93.4
56558;BME280;43358;50.356;12.456;2023-01-28T06:19:39;96166;;;-0.9;93.7
56558;BME280;43358;50.356;12.456;2023-01-28T06:20:41;96172;;;-0.9;93.7
56558;BME280;43358;50.356;12.456;2023-01-28T06:21:44;96173;;;-0.9;93.9
56558;BME280;43358;50.356;12.456;2023-01-28T06:22:46;96169;;;-1;93.8
56558;BME280;43358;50.356;12.456;2023-01-28T06:23:48;96177;;;-1;93.7
56558;BME280;43358;50.356;12.456;2023-01-28T06:24:50;96184;;;-1;93.3
56558;BME280;43358;50.356;12.456;2023-01-28T06:25:52;96177;;;-1;93.4
56558;BME280;43358;50.356;12.456;2023-01-28T06:26:54;96188;;;-1.1;93.7
56558;BME280;43358;50.356;12.456;2023-01-28T06:27:56;96180;;;-1.1;94.2
56558;BME280;43358;50.356;12.456;2023-01-28T06:28:58;96176;;;-1.2;94.5
56558;BME280;43358;50.356;12.456;2023-01-28T06:46:02;96179;;;-1.3;94.8
56558;BME280;43358;50.356;12.456;2023-01-28T06:46:03;96182;;;-1.3;94.9
56558;BME280;43358;50.356;12.456;2023-01-28T06:46:19;96195;;;-1.2;94.4
56558;BME280;43358;50.356;12.456;2023-01-28T06:47:19;96198;;;-1.2;94.1
56558;BME280;43358;50.356;12.456;2023-01-28T06:48:19;96198;;;-1.2;94.2
56558;BME280;43358;50.356;12.456;2023-01-28T06:51:02;96199;;;-1.2;94.1
56558;BME280;43358;50.356;12.456;2023-01-28T06:52:19;96201;;;-1.3;94.2
56558;BME280;43358;50.356;12.456;2023-01-28T06:53:23;96205;;;-1.3;94.3
56558;BME280;43358;50.356;12.456;2023-01-28T06:54:25;96210;;;-1.3;94.5
56558;BME280;43358;50.356;12.456;2023-01-28T06:55:27;96210;;;-1.4;94.5
56558;BME280;43358;50.356;12.456;2023-01-28T07:07:33;96225;;;-1.6;94.5
56558;BME280;43358;50.356;12.456;2023-01-28T07:09:32;96226;;;-1.6;94.6
56558;BME280;43358;50.356;12.456;2023-01-28T07:26:37;96222;;;-1.6;95.5
56558;BME280;43358;50.356;12.456;2023-01-28T07:26:37;96227;;;-1.6;95.2
56558;BME280;43358;50.356;12.456;2023-01-28T07:27:23;96232;;;-1.6;93.9
56558;BME280;43358;50.356;12.456;2023-01-28T07:30:23;96234;;;-1.5;93.7
56558;BME280;43358;50.356;12.456;2023-01-28T07:32:09;96233;;;-1.5;93.6
56558;BME280;43358;50.356;12.456;2023-01-28T07:33:11;96234;;;-1.5;94.2
56558;BME280;43358;50.356;12.456;2023-01-28T07:34:13;96236;;;-1.5;94.2
56558;BME280;43358;50.356;12.456;2023-01-28T07:35:15;96238;;;-1.5;94.4
56558;BME280;43358;50.356;12.456;2023-01-28T07:36:19;96242;;;-1.6;94.4
56558;BME280;43358;50.356;12.456;2023-01-28T07:37:22;96240;;;-1.6;94.4
56558;BME280;43358;50.356;12.456;2023-01-28T07:38:24;96241;;;-1.6;94.4
56558;BME280;43358;50.356;12.456;2023-01-28T07:39:26;96239;;;-1.6;94.4
56558;BME280;43358;50.356;12.456;2023-01-28T07:40:28;96240;;;-1.5;94.2
56558;BME280;43358;50.356;12.456;2023-01-28T07:41:30;96243;;;-1.5;94.3
56558;BME280;43358;50.356;12.456;2023-01-28T07:42:32;96241;;;-1.5;94.1
56558;BME280;43358;50.356;12.456;2023-01-28T07:43:34;96241;;;-1.5;94.4
56558;BME280;43358;50.356;12.456;2023-01-28T07:44:36;96243;;;-1.5;94.7
56558;BME280;43358;50.356;12.456;2023-01-28T07:45:38;96243;;;-1.5;94.9
56558;BME280;43358;50.356;12.456;2023-01-28T07:46:40;96247;;;-1.5;94.5
56558;BME280;43358;50.356;12.456;2023-01-28T07:47:42;96251;;;-1.5;93.5
56558;BME280;43358;50.356;12.456;2023-01-28T07:48:44;96247;;;-1.5;92.6
56558;BME280;43358;50.356;12.456;2023-01-28T07:49:46;96247;;;-1.5;92.1
56558;BME280;43358;50.356;12.456;2023-01-28T07:50:48;96248;;;-1.5;91.8
56558;BME280;43358;50.356;12.456;2023-01-28T07:51:50;96254;;;-1.6;92.3
56558;BME280;43358;50.356;12.456;2023-01-28T07:52:52;96254;;;-1.6;92.6
56558;BME280;43358;50.356;12.456;2023-01-28T07:53:54;96257;;;-1.6;92.8
56558;BME280;43358;50.356;12.456;2023-01-28T07:55:07;96256;;;-1.7;92.4
56558;BME280;43358;50.356;12.456;2023-01-28T07:55:59;96258;;;-1.7;92.9
56558;BME280;43358;50.356;12.456;2023-01-28T07:57:01;96262;;;-1.7;93.3
56558;BME280;43358;50.356;12.456;2023-01-28T07:58:04;96258;;;-1.8;94
56558;BME280;43358;50.356;12.456;2023-01-28T07:59:06;96261;;;-1.8;93.7
56558;BME280;43358;50.356;12.456;2023-01-28T08:00:09;96258;;;-1.8;93.6
56558;BME280;43358;50.356;12.456;2023-01-28T08:02:12;96260;;;-1.9;93.6
56558;BME280;43358;50.356;12.456;2023-01-28T08:03:14;96258;;;-1.8;94.3
56558;BME280;43358;50.356;12.456;2023-01-28T08:04:17;96259;;;-1.8;94
56558;BME280;43358;50.356;12.456;2023-01-28T08:06:21;96260;;;-1.8;93.3
56558;BME280;43358;50.356;12.456;2023-01-28T08:07:23;96254;;;-2;94
56558;BME280;43358;50.356;12.456;2023-01-28T08:08:26;96252;;;-1.9;93.5
56558;BME280;43358;50.356;12.456;2023-01-28T08:09:27;96256;;;-2;93.3
56558;BME280;43358;50.356;12.456;2023-01-28T08:10:29;96257;;;-1.9;93.6
56558;BME280;43358;50.356;12.456;2023-01-28T08:12:33;96263;;;-1.9;93.8
56558;BME280;43358;50.356;12.456;2023-01-28T08:13:36;96260;;;-1.9;94
56558;BME280;43358;50.356;12.456;2023-01-28T08:14:37;96257;;;-1.9;94
56558;BME280;43358;50.356;12.456;2023-01-28T08:17:18;96261;;;-1.9;93.7
56558;BME280;43358;50.356;12.456;2023-01-28T08:18:04;96261;;;-1.9;93.9
56558;BME280;43358;50.356;12.456;2023-01-28T08:19:07;96259;;;-1.9;93.9
56558;BME280;43358;50.356;12.456;2023-01-28T08:20:09;96264;;;-1.9;94.2
56558;BME280;43358;50.356;12.456;2023-01-28T08:21:11;96263;;;-1.9;94